Terminal Aerodrome Forecast
Issued by NWS

Home | Current Version | Previous Version | Text Only | Print | Product List | Glossary On
Versions: 1 2 3 4 5 6 7 8 9 10 11 12 13
000
FTUS45 KTFX 201100
TAFCTB
TAF
KCTB 201136Z 2012/2112 24018KT P6SM SCT150
     FM201700 25020G32KT P6SM BKN150
     FM202000 25020G35KT P6SM BKN120
     FM210600 25015KT P6SM VCSH OVC090=

USA.gov is the U.S. government's official web portal to all federal, state and local government web resources and services.